createdAt,value
2023-05-10T00:00:09.220Z,4.70
2023-05-10T00:01:09.508Z,4.60
2023-05-10T00:02:09.851Z,5.80
2023-05-10T00:03:10.228Z,6.50
2023-05-10T00:04:10.400Z,5.10
2023-05-10T00:05:10.704Z,5.30
2023-05-10T00:06:11.049Z,5.10
2023-05-10T00:07:11.250Z,5.00
2023-05-10T00:08:11.517Z,5.90
2023-05-10T00:09:11.786Z,6.20
2023-05-10T00:10:12.055Z,4.70
2023-05-10T00:11:12.344Z,4.60
2023-05-10T00:12:12.717Z,4.90
2023-05-10T00:13:13.062Z,5.40
2023-05-10T00:14:13.266Z,5.80
2023-05-10T00:15:13.540Z,6.70
2023-05-10T00:16:13.824Z,6.60
2023-05-10T00:17:14.102Z,5.50
2023-05-10T00:18:14.404Z,5.60
2023-05-10T00:19:14.681Z,5.60
2023-05-10T00:20:15.174Z,5.50
2023-05-10T00:21:15.206Z,6.00
2023-05-10T00:22:15.475Z,7.90
2023-05-10T00:23:15.817Z,6.10
2023-05-10T00:24:16.035Z,6.90
2023-05-10T00:25:16.424Z,7.00
2023-05-10T00:26:16.627Z,5.90
2023-05-10T00:27:16.954Z,5.00
2023-05-10T00:28:17.161Z,5.60
2023-05-10T00:29:17.444Z,6.50
2023-05-10T00:30:17.991Z,5.70
2023-05-10T00:31:18.019Z,6.30
2023-05-10T00:32:18.375Z,5.90
2023-05-10T00:33:18.649Z,5.90
2023-05-10T00:34:18.882Z,5.70
2023-05-10T00:35:19.171Z,5.30
2023-05-10T00:36:19.467Z,8.00
2023-05-10T00:37:19.725Z,6.90
2023-05-10T00:38:20.022Z,5.60
2023-05-10T00:39:20.328Z,5.60
2023-05-10T00:40:20.628Z,5.20
2023-05-10T00:41:20.840Z,4.90
2023-05-10T00:42:21.153Z,7.40
2023-05-10T00:43:21.502Z,5.00
2023-05-10T00:44:21.754Z,5.50
2023-05-10T00:45:22.010Z,6.70
2023-05-10T00:46:22.318Z,6.60
2023-05-10T00:47:22.660Z,5.40
2023-05-10T00:48:22.926Z,4.70
2023-05-10T00:49:23.214Z,5.00
2023-05-10T00:50:23.575Z,5.80
2023-05-10T00:51:23.802Z,5.20
2023-05-10T00:52:24.129Z,6.30
2023-05-10T00:53:24.566Z,4.90
2023-05-10T00:54:24.629Z,7.20
2023-05-10T00:55:24.919Z,4.40
2023-05-10T00:56:25.229Z,5.00
2023-05-10T00:57:25.524Z,4.70
2023-05-10T00:58:25.797Z,4.80
2023-05-10T00:59:26.088Z,4.60
2023-05-10T01:00:26.382Z,5.50
2023-05-10T01:01:26.772Z,5.60
2023-05-10T01:02:27.027Z,4.90
2023-05-10T01:03:27.199Z,4.90
2023-05-10T01:04:27.557Z,5.10
2023-05-10T01:05:27.728Z,4.60
2023-05-10T01:06:27.991Z,5.30
2023-05-10T01:07:28.280Z,5.10
2023-05-10T01:13:33.162Z,4.80
2023-05-10T01:14:33.389Z,4.80
2023-05-10T01:15:33.660Z,5.10
2023-05-10T01:16:34.053Z,5.80
2023-05-10T01:17:34.333Z,4.90
2023-05-10T01:18:34.610Z,4.70
2023-05-10T01:19:34.853Z,5.10
2023-05-10T01:20:35.170Z,5.40
2023-05-10T01:21:35.402Z,4.90
2023-05-10T01:22:35.780Z,5.40
2023-05-10T01:23:36.011Z,5.10
2023-05-10T01:24:36.214Z,6.10
2023-05-10T01:25:36.544Z,5.20
2023-05-10T01:26:36.770Z,6.10
2023-05-10T01:27:37.382Z,6.10
2023-05-10T01:28:37.307Z,5.50
2023-05-10T01:29:37.631Z,5.00
2023-05-10T01:30:37.870Z,6.20
2023-05-10T01:31:38.200Z,5.00
2023-05-10T01:32:38.503Z,5.20
2023-05-10T01:33:38.795Z,5.40
2023-05-10T01:34:39.022Z,6.50
2023-05-10T01:35:39.359Z,5.80
2023-05-10T01:36:39.589Z,7.60
2023-05-10T01:37:39.883Z,6.20
2023-05-10T01:38:40.243Z,6.00
2023-05-10T01:39:40.542Z,6.80
2023-05-10T01:40:40.812Z,6.90
2023-05-10T01:41:41.080Z,6.40
2023-05-10T01:42:41.392Z,7.80
2023-05-10T01:43:41.824Z,7.90
2023-05-10T01:44:41.979Z,8.40
2023-05-10T01:45:42.273Z,6.50
2023-05-10T01:46:42.663Z,7.30
2023-05-10T01:47:42.920Z,6.80
2023-05-10T01:48:43.254Z,8.10
2023-05-10T01:49:43.433Z,9.40
2023-05-10T01:50:43.726Z,7.00
2023-05-10T01:51:43.998Z,7.00
2023-05-10T01:52:44.400Z,7.50
2023-05-10T01:53:44.641Z,7.00
2023-05-10T01:54:44.867Z,7.80
2023-05-10T01:55:45.175Z,6.20
2023-05-10T01:56:45.541Z,6.60
2023-05-10T01:57:45.779Z,8.20
2023-05-10T01:58:46.058Z,8.30
2023-05-10T01:59:46.449Z,8.00
2023-05-10T02:00:46.683Z,8.30
2023-05-10T02:01:46.947Z,7.50
2023-05-10T02:02:47.293Z,7.30
2023-05-10T02:03:47.645Z,6.40
2023-05-10T02:04:47.840Z,7.90
2023-05-10T02:05:48.136Z,8.20
2023-05-10T02:06:48.418Z,7.10
2023-05-10T02:07:48.851Z,7.00
2023-05-10T02:08:48.959Z,7.50
2023-05-10T02:09:49.240Z,8.30
2023-05-10T02:10:49.530Z,6.20
2023-05-10T02:11:49.950Z,7.30
2023-05-10T02:12:50.115Z,6.40
2023-05-10T02:13:50.397Z,7.30
2023-05-10T02:14:50.621Z,6.60
2023-05-10T02:15:50.950Z,7.50
2023-05-10T02:16:51.279Z,8.00
2023-05-10T02:17:51.481Z,6.80
2023-05-10T02:18:51.775Z,7.30
2023-05-10T02:19:52.090Z,6.40
2023-05-10T02:20:52.352Z,7.70
2023-05-10T02:21:52.649Z,8.10
2023-05-10T02:22:52.961Z,9.10
2023-05-10T02:23:53.238Z,8.00
2023-05-10T02:24:53.547Z,7.20
2023-05-10T02:25:53.814Z,8.90
2023-05-10T02:26:54.051Z,7.40
2023-05-10T02:27:54.792Z,8.70
2023-05-10T02:28:54.691Z,7.50
2023-05-10T02:29:54.956Z,6.00
2023-05-10T02:30:55.222Z,6.30
2023-05-10T02:31:55.605Z,6.30
2023-05-10T02:32:55.841Z,7.50
2023-05-10T02:33:56.139Z,7.20
2023-05-10T02:34:56.423Z,6.40
2023-05-10T02:35:56.696Z,7.40
2023-05-10T02:36:56.926Z,7.30
2023-05-10T02:37:57.216Z,7.40
2023-05-10T02:38:57.506Z,6.60
2023-05-10T02:39:57.786Z,7.50
2023-05-10T02:40:58.116Z,8.00
2023-05-10T02:41:58.382Z,6.90
2023-05-10T02:42:58.665Z,6.90
2023-05-10T02:43:58.965Z,7.10
2023-05-10T02:44:59.243Z,9.50
2023-05-10T02:45:59.553Z,6.90
2023-05-10T02:46:59.855Z,7.10
2023-05-10T02:48:00.169Z,7.60
2023-05-10T02:49:00.393Z,7.80
2023-05-10T02:50:00.699Z,8.20
2023-05-10T02:51:00.974Z,7.40
2023-05-10T02:52:01.361Z,7.90
2023-05-10T02:53:01.532Z,7.80
2023-05-10T02:54:01.865Z,9.50
2023-05-10T02:55:02.175Z,8.80
2023-05-10T02:56:02.381Z,8.20
2023-05-10T02:57:02.770Z,7.30
2023-05-10T02:58:03.216Z,7.60
2023-05-10T02:59:03.295Z,9.90
2023-05-10T03:00:03.559Z,8.20
2023-05-10T03:01:03.905Z,7.60
2023-05-10T03:02:04.149Z,7.90
2023-05-10T03:03:04.451Z,7.50
2023-05-10T03:04:04.743Z,7.10
2023-05-10T03:05:05.008Z,9.40
2023-05-10T03:06:05.309Z,8.00
2023-05-10T03:07:05.607Z,8.40
2023-05-10T03:08:05.953Z,8.40
2023-05-10T03:09:06.241Z,7.70
2023-05-10T03:10:06.529Z,7.20
2023-05-10T03:11:06.838Z,8.40
2023-05-10T03:12:07.200Z,8.50
2023-05-10T03:13:07.420Z,8.20
2023-05-10T03:14:07.654Z,8.60
2023-05-10T03:15:07.916Z,9.10
2023-05-10T03:16:08.401Z,7.30
2023-05-10T03:17:08.489Z,7.20
2023-05-10T03:18:08.769Z,8.60
2023-05-10T03:19:09.099Z,9.00
2023-05-10T03:20:09.351Z,8.60
2023-05-10T03:21:09.580Z,7.80
2023-05-10T03:22:09.845Z,7.30
2023-05-10T03:23:10.044Z,7.40
2023-05-10T03:24:10.402Z,6.80
2023-05-10T03:25:10.688Z,11.00
2023-05-10T03:26:10.981Z,6.40
2023-05-10T03:27:11.396Z,7.30
2023-05-10T03:28:11.618Z,7.90
2023-05-10T03:29:11.951Z,8.30
2023-05-10T03:30:12.234Z,9.40
2023-05-10T03:31:12.596Z,6.80
2023-05-10T03:32:12.786Z,7.80
2023-05-10T03:33:13.254Z,8.40
2023-05-10T03:34:13.402Z,7.20
2023-05-10T03:35:13.668Z,8.80
2023-05-10T03:36:14.045Z,7.50
2023-05-10T03:37:14.188Z,7.00
2023-05-10T03:38:14.487Z,7.10
2023-05-10T03:39:14.765Z,7.70
2023-05-10T03:40:15.247Z,8.20
2023-05-10T03:41:15.456Z,7.60
2023-05-10T03:42:15.581Z,7.40
2023-05-10T03:43:15.858Z,6.00
2023-05-10T03:44:16.165Z,7.90
2023-05-10T03:45:16.383Z,7.20
2023-05-10T03:46:16.669Z,8.00
2023-05-10T03:47:16.995Z,7.00
2023-05-10T03:48:17.282Z,8.40
2023-05-10T03:49:17.422Z,5.70
2023-05-10T03:50:17.924Z,8.50
2023-05-10T03:51:18.013Z,7.10
2023-05-10T03:52:18.292Z,7.30
2023-05-10T03:53:18.666Z,6.80
2023-05-10T03:54:18.851Z,6.90
2023-05-10T03:55:19.136Z,7.60
2023-05-10T03:56:19.427Z,7.20
2023-05-10T03:57:19.770Z,6.60
2023-05-10T03:58:20.038Z,8.30
2023-05-10T03:59:20.229Z,7.70
2023-05-10T04:00:20.573Z,7.90
2023-05-10T04:01:20.847Z,7.10
2023-05-10T04:02:21.194Z,8.40
2023-05-10T04:03:21.574Z,6.20
2023-05-10T04:04:21.832Z,8.70
2023-05-10T04:05:22.037Z,7.20
2023-05-10T04:06:22.255Z,7.10
2023-05-10T04:07:22.611Z,6.80
2023-05-10T04:08:22.913Z,6.30
2023-05-10T04:09:23.209Z,6.40
2023-05-10T04:10:23.530Z,7.50
2023-05-10T04:11:23.920Z,6.70
2023-05-10T04:12:24.107Z,8.00
2023-05-10T04:13:24.534Z,7.30
2023-05-10T04:14:24.701Z,7.20
2023-05-10T04:15:25.000Z,7.20
2023-05-10T04:16:25.385Z,6.80
2023-05-10T04:17:25.602Z,7.80
2023-05-10T04:18:25.900Z,6.20
2023-05-10T04:19:26.219Z,7.40
2023-05-10T04:20:26.500Z,6.70
2023-05-10T04:21:26.791Z,8.10
2023-05-10T04:22:27.187Z,7.80
2023-05-10T04:23:27.379Z,7.70
2023-05-10T04:24:27.682Z,8.00
2023-05-10T04:25:28.047Z,9.10
2023-05-10T04:26:28.235Z,7.50
2023-05-10T04:27:28.535Z,7.40
2023-05-10T04:28:28.889Z,8.30
2023-05-10T04:29:29.086Z,9.20
2023-05-10T04:30:29.357Z,10.90
2023-05-10T04:31:29.779Z,11.20
2023-05-10T04:32:29.955Z,8.90
2023-05-10T04:33:30.254Z,11.20
2023-05-10T04:34:30.584Z,8.90
2023-05-10T04:35:30.901Z,8.10
2023-05-10T04:36:31.189Z,8.60
2023-05-10T04:37:31.533Z,10.10
2023-05-10T04:38:31.759Z,9.60
2023-05-10T04:39:32.328Z,8.40
2023-05-10T04:40:32.591Z,11.00
2023-05-10T04:41:32.647Z,9.60
2023-05-10T04:42:33.009Z,8.10
2023-05-10T04:43:33.916Z,8.20
2023-05-10T04:44:33.460Z,8.80
2023-05-10T04:45:33.871Z,8.20
2023-05-10T04:46:34.050Z,8.00
2023-05-10T04:47:34.361Z,8.30
2023-05-10T04:48:34.827Z,8.70
2023-05-10T04:49:34.924Z,8.80
2023-05-10T04:50:35.318Z,9.70
2023-05-10T04:51:35.579Z,8.50
2023-05-10T04:52:35.781Z,8.70
2023-05-10T04:53:36.135Z,7.80
2023-05-10T04:54:36.436Z,10.80
2023-05-10T04:55:36.832Z,7.60
2023-05-10T04:56:37.128Z,9.60
2023-05-10T04:57:37.290Z,10.50
2023-05-10T04:58:37.668Z,12.20
2023-05-10T04:59:37.857Z,8.20
2023-05-10T05:00:38.381Z,8.70
2023-05-10T05:01:38.573Z,6.80
2023-05-10T05:02:38.896Z,6.70
2023-05-10T05:03:39.166Z,7.70
2023-05-10T05:04:39.355Z,6.50
2023-05-10T05:05:39.619Z,12.60
2023-05-10T05:06:39.823Z,7.80
2023-05-10T05:07:40.252Z,7.10
2023-05-10T05:08:40.408Z,6.20
2023-05-10T05:09:41.597Z,6.70
2023-05-10T05:10:41.832Z,6.70
2023-05-10T05:11:41.288Z,7.00
2023-05-10T05:12:41.711Z,6.20
2023-05-10T05:13:41.833Z,7.20
2023-05-10T05:14:42.170Z,6.60
2023-05-10T05:15:42.456Z,8.10
2023-05-10T05:16:42.880Z,6.80
2023-05-10T05:17:43.152Z,6.10
2023-05-10T05:18:43.356Z,6.30
2023-05-10T05:19:43.683Z,7.00
2023-05-10T05:20:44.016Z,7.10
2023-05-10T05:21:44.221Z,9.20
2023-05-10T05:22:44.576Z,7.00
2023-05-10T05:23:44.781Z,6.20
2023-05-10T05:24:45.097Z,8.70
2023-05-10T05:25:45.454Z,6.60
2023-05-10T05:26:45.817Z,8.00
2023-05-10T05:27:46.086Z,6.70
2023-05-10T05:28:46.230Z,7.20
2023-05-10T05:29:46.515Z,7.70
2023-05-10T05:30:46.830Z,7.90
2023-05-10T05:31:47.247Z,8.80
2023-05-10T05:32:47.889Z,7.70
2023-05-10T05:33:47.676Z,7.10
2023-05-10T05:34:48.000Z,8.30
2023-05-10T05:35:48.237Z,8.10
2023-05-10T05:36:48.468Z,7.90
2023-05-10T05:37:48.932Z,7.90
2023-05-10T05:38:49.099Z,6.60
2023-05-10T05:39:49.378Z,7.00
2023-05-10T05:40:49.559Z,8.40
2023-05-10T05:41:49.779Z,8.70
2023-05-10T05:42:50.198Z,7.70
2023-05-10T05:43:50.393Z,7.00
2023-05-10T05:44:50.784Z,7.20
2023-05-10T05:45:50.809Z,7.70
2023-05-10T05:46:51.133Z,7.50
2023-05-10T05:47:51.537Z,9.70
2023-05-10T05:48:51.812Z,8.30
2023-05-10T05:49:52.428Z,9.00
2023-05-10T05:50:52.280Z,7.00
2023-05-10T05:51:52.745Z,10.50
2023-05-10T05:52:52.890Z,7.20
2023-05-10T05:53:53.292Z,8.60
2023-05-10T05:54:53.468Z,9.20
2023-05-10T05:55:53.770Z,10.30
2023-05-10T05:56:53.932Z,7.30
2023-05-10T05:57:54.226Z,10.80
2023-05-10T05:58:54.610Z,13.30
2023-05-10T05:59:54.983Z,12.80
2023-05-10T06:00:55.216Z,9.70
2023-05-10T06:01:55.419Z,8.40
2023-05-10T06:02:55.844Z,8.60
2023-05-10T06:03:56.071Z,8.60
2023-05-10T06:04:56.296Z,8.70
2023-05-10T06:05:56.491Z,10.60
2023-05-10T06:06:56.793Z,7.20
2023-05-10T06:07:57.103Z,8.60
2023-05-10T06:08:57.526Z,7.90
2023-05-10T06:09:57.738Z,8.50
2023-05-10T06:10:58.001Z,9.50
2023-05-10T06:11:58.272Z,7.70
2023-05-10T06:12:58.489Z,7.40
2023-05-10T06:13:58.698Z,11.50
2023-05-10T06:14:58.912Z,8.30
2023-05-10T06:15:59.260Z,10.00
2023-05-10T06:16:59.503Z,10.50
2023-05-10T06:17:59.736Z,8.60
2023-05-10T06:19:00.910Z,10.10
2023-05-10T06:20:00.287Z,12.50
2023-05-10T06:21:00.622Z,7.90
2023-05-10T06:22:01.011Z,10.20
2023-05-10T06:23:01.212Z,7.80
2023-05-10T06:24:01.634Z,11.00
2023-05-10T06:25:01.834Z,8.20
2023-05-10T06:26:02.190Z,8.70
2023-05-10T06:27:02.602Z,11.60
2023-05-10T06:28:02.763Z,9.70
2023-05-10T06:29:03.170Z,8.00
2023-05-10T06:30:12.313Z,11.10
2023-05-10T06:31:04.804Z,8.40
2023-05-10T06:32:04.043Z,7.90
2023-05-10T06:33:04.302Z,9.20
2023-05-10T06:34:04.736Z,9.00
2023-05-10T06:35:04.876Z,9.10
2023-05-10T06:36:05.296Z,7.30
2023-05-10T06:37:05.692Z,9.10
2023-05-10T06:38:05.799Z,9.60
2023-05-10T06:39:06.138Z,8.90
2023-05-10T06:40:06.496Z,9.40
2023-05-10T06:41:06.678Z,10.30
2023-05-10T06:42:06.967Z,11.90
2023-05-10T06:43:07.213Z,9.40
2023-05-10T06:44:07.584Z,8.10
2023-05-10T06:45:08.756Z,9.50
2023-05-10T06:46:08.192Z,9.80
2023-05-10T06:47:08.369Z,8.90
2023-05-10T06:48:08.684Z,8.70
2023-05-10T06:49:08.837Z,10.60
2023-05-10T06:50:09.190Z,9.40
2023-05-10T06:51:09.652Z,9.10
2023-05-10T06:52:09.879Z,11.00
2023-05-10T06:53:10.063Z,11.00
2023-05-10T06:54:10.279Z,7.50
2023-05-10T06:55:10.686Z,8.00
2023-05-10T06:56:10.948Z,9.50
2023-05-10T06:57:23.402Z,9.10
2023-05-10T06:58:12.505Z,7.40
2023-05-10T06:59:11.949Z,8.70
2023-05-10T07:00:12.103Z,9.90
2023-05-10T07:01:12.388Z,8.00
2023-05-10T07:02:12.668Z,9.00
2023-05-10T07:03:12.971Z,8.30
2023-05-10T07:04:13.138Z,9.50
2023-05-10T07:05:13.450Z,8.00
2023-05-10T07:06:29.485Z,8.40
2023-05-10T07:07:15.035Z,7.80
2023-05-10T07:08:14.333Z,9.00
2023-05-10T07:09:14.684Z,9.00
2023-05-10T07:10:15.896Z,8.70
2023-05-10T07:11:15.156Z,10.80
2023-05-10T07:12:16.017Z,8.80
2023-05-10T07:13:15.721Z,7.10
2023-05-10T07:14:16.319Z,7.70
2023-05-10T07:15:16.429Z,9.10
2023-05-10T07:16:16.868Z,6.80
2023-05-10T07:17:16.822Z,11.30
2023-05-10T07:18:17.141Z,7.70
2023-05-10T07:19:17.366Z,10.20
2023-05-10T07:20:17.570Z,8.60
2023-05-10T07:21:17.993Z,8.50
2023-05-10T07:22:18.234Z,9.80
2023-05-10T07:23:18.517Z,8.70
2023-05-10T07:24:18.816Z,8.80
2023-05-10T07:25:19.247Z,9.50
2023-05-10T07:26:19.442Z,10.40
2023-05-10T07:27:19.614Z,8.10
2023-05-10T07:28:19.992Z,8.00
2023-05-10T07:29:20.246Z,7.60
2023-05-10T07:30:20.480Z,7.20
2023-05-10T07:31:20.894Z,9.10
2023-05-10T07:32:21.168Z,8.40
2023-05-10T07:33:21.514Z,8.20
2023-05-10T07:34:21.801Z,6.90
2023-05-10T07:35:22.093Z,7.80
2023-05-10T07:36:22.266Z,9.20
2023-05-10T07:37:22.714Z,7.20
2023-05-10T07:38:22.970Z,8.50
2023-05-10T07:39:27.630Z,6.70
2023-05-10T07:40:23.465Z,7.80
2023-05-10T07:41:23.738Z,8.90
2023-05-10T07:42:23.935Z,7.80
2023-05-10T07:43:24.251Z,9.10
2023-05-10T07:44:24.680Z,10.90
2023-05-10T07:45:24.911Z,6.70
2023-05-10T07:46:25.137Z,7.20
2023-05-10T07:47:25.466Z,11.30
2023-05-10T07:48:25.716Z,9.00
2023-05-10T07:49:26.015Z,8.70
2023-05-10T07:50:26.340Z,10.10
2023-05-10T07:51:26.496Z,8.20
2023-05-10T07:52:26.963Z,8.80
2023-05-10T07:53:27.174Z,6.70
2023-05-10T07:54:27.381Z,10.30
2023-05-10T07:55:27.709Z,11.10
2023-05-10T07:56:27.882Z,7.30
2023-05-10T07:57:28.670Z,7.80
2023-05-10T07:58:28.444Z,7.20
2023-05-10T07:59:28.729Z,8.60
2023-05-10T08:00:29.077Z,8.00
2023-05-10T08:01:29.403Z,7.90
2023-05-10T08:02:29.962Z,9.80
2023-05-10T08:03:30.135Z,8.20
2023-05-10T08:04:30.403Z,7.40
2023-05-10T08:05:30.728Z,8.70
2023-05-10T08:06:31.188Z,6.50
2023-05-10T08:07:31.403Z,6.80
2023-05-10T08:08:31.585Z,7.80
2023-05-10T08:09:31.725Z,6.00
2023-05-10T08:10:32.090Z,6.70
2023-05-10T08:11:33.705Z,7.80
2023-05-10T08:12:32.664Z,7.80
2023-05-10T08:13:32.924Z,8.50
2023-05-10T08:14:33.082Z,8.00
2023-05-10T08:15:33.545Z,9.90
2023-05-10T08:16:34.602Z,8.80
2023-05-10T08:17:33.945Z,8.40
2023-05-10T08:18:34.357Z,8.00
2023-05-10T08:19:34.570Z,7.20
2023-05-10T08:20:34.763Z,6.70
2023-05-10T08:21:35.085Z,7.20
2023-05-10T08:22:35.513Z,6.40
2023-05-10T08:23:35.687Z,9.10
2023-05-10T08:24:36.016Z,10.00
2023-05-10T08:25:37.217Z,10.00
2023-05-10T08:26:36.645Z,7.80
2023-05-10T08:27:36.947Z,6.80
2023-05-10T08:28:38.122Z,8.50
2023-05-10T08:29:48.984Z,8.30
2023-05-10T08:30:38.831Z,8.40
2023-05-10T08:31:38.066Z,7.20
2023-05-10T08:32:39.622Z,10.60
2023-05-10T08:33:38.734Z,16.30
2023-05-10T08:34:38.902Z,13.90
2023-05-10T08:35:39.222Z,7.70
2023-05-10T08:36:39.712Z,8.10
2023-05-10T08:37:39.855Z,8.20
2023-05-10T08:38:40.135Z,13.60
2023-05-10T08:39:40.400Z,12.90
2023-05-10T08:40:40.662Z,13.70
2023-05-10T08:41:41.105Z,7.40
2023-05-10T08:42:41.140Z,13.90
2023-05-10T08:43:41.586Z,8.90
2023-05-10T08:44:41.703Z,5.90
2023-05-10T08:45:42.039Z,9.00
2023-05-10T08:46:42.412Z,8.50
2023-05-10T08:47:42.734Z,6.30
2023-05-10T08:48:42.874Z,8.50
2023-05-10T08:49:44.197Z,8.90
2023-05-10T08:50:43.501Z,12.40
2023-05-10T08:51:44.247Z,15.70
2023-05-10T08:52:44.314Z,16.10
2023-05-10T08:53:44.427Z,28.60
2023-05-10T08:54:44.613Z,28.20
2023-05-10T08:55:44.899Z,25.10
2023-05-10T08:56:45.167Z,25.70
2023-05-10T08:57:45.423Z,18.90
2023-05-10T08:58:45.670Z,24.70
2023-05-10T08:59:45.839Z,15.20
2023-05-10T09:00:46.177Z,13.20
2023-05-10T09:01:46.418Z,12.90
2023-05-10T09:02:46.707Z,10.80
2023-05-10T09:03:46.945Z,16.50
2023-05-10T09:04:47.377Z,14.10
2023-05-10T09:05:48.524Z,19.40
2023-05-10T09:06:47.873Z,13.70
2023-05-10T09:07:48.219Z,12.60
2023-05-10T09:08:48.508Z,9.30
2023-05-10T09:09:48.743Z,11.90
2023-05-10T09:10:48.967Z,10.10
2023-05-10T09:11:49.339Z,13.90
2023-05-10T09:12:49.683Z,20.10
2023-05-10T09:13:49.881Z,10.50
2023-05-10T09:14:50.298Z,14.80
2023-05-10T09:15:50.512Z,13.70
2023-05-10T09:16:50.912Z,9.80
2023-05-10T09:17:51.135Z,10.90
2023-05-10T09:18:52.331Z,13.00
2023-05-10T09:19:51.682Z,9.90
2023-05-10T09:20:52.034Z,8.20
2023-05-10T09:21:52.305Z,8.40
2023-05-10T09:22:52.506Z,8.10
2023-05-10T09:23:52.718Z,9.20
2023-05-10T09:24:53.041Z,5.20
2023-05-10T09:25:53.372Z,9.10
2023-05-10T09:26:53.713Z,11.10
2023-05-10T09:27:54.029Z,8.20
2023-05-10T09:28:54.251Z,9.20
2023-05-10T09:29:54.455Z,24.10
2023-05-10T09:30:54.967Z,7.10
2023-05-10T09:31:55.284Z,10.30
2023-05-10T09:32:55.545Z,7.80
2023-05-10T09:33:55.715Z,8.30
2023-05-10T09:34:56.062Z,9.00
2023-05-10T09:35:56.470Z,7.70
2023-05-10T09:36:56.682Z,8.10
2023-05-10T09:37:57.007Z,8.10
2023-05-10T09:38:57.167Z,8.30
2023-05-10T09:39:57.526Z,48.90
2023-05-10T09:40:57.800Z,33.00
2023-05-10T09:41:58.082Z,74.50
2023-05-10T09:42:58.285Z,58.60
2023-05-10T09:43:58.567Z,33.70
2023-05-10T09:44:58.758Z,26.50
2023-05-10T09:45:59.137Z,36.20
2023-05-10T09:46:59.318Z,25.90
2023-05-10T09:47:59.847Z,36.40
2023-05-10T09:48:59.993Z,21.10
2023-05-10T09:50:00.440Z,27.80
2023-05-10T09:51:00.661Z,20.80
2023-05-10T09:52:00.976Z,13.90
2023-05-10T09:53:01.446Z,12.00
2023-05-10T09:54:01.594Z,26.20
2023-05-10T09:55:01.962Z,25.40
2023-05-10T09:56:02.239Z,29.00
2023-05-10T09:57:02.489Z,17.90
2023-05-10T09:58:02.819Z,11.60
2023-05-10T09:59:03.020Z,9.10
2023-05-10T10:00:03.429Z,6.60
2023-05-10T10:01:03.678Z,14.60
2023-05-10T10:02:03.969Z,27.40
2023-05-10T10:03:04.258Z,12.20
2023-05-10T10:04:04.629Z,20.60
2023-05-10T10:05:05.103Z,10.40
2023-05-10T10:06:05.298Z,12.10
2023-05-10T10:07:05.472Z,10.70
2023-05-10T10:08:05.714Z,5.80
2023-05-10T10:09:05.923Z,14.80
2023-05-10T10:10:06.176Z,14.20
2023-05-10T10:11:06.602Z,13.00
2023-05-10T10:12:07.809Z,12.50
2023-05-10T10:13:07.138Z,20.50
2023-05-10T10:14:07.345Z,7.70
2023-05-10T10:15:07.918Z,16.60
2023-05-10T10:16:08.109Z,10.00
2023-05-10T10:17:09.083Z,13.90
2023-05-10T10:18:09.071Z,9.80
2023-05-10T10:19:09.495Z,6.40
2023-05-10T10:20:11.722Z,9.20
2023-05-10T10:21:09.582Z,7.40
2023-05-10T10:22:09.754Z,8.10
2023-05-10T10:23:10.504Z,8.50
2023-05-10T10:24:10.477Z,9.70
2023-05-10T10:25:10.668Z,7.30
2023-05-10T10:26:11.055Z,7.80
2023-05-10T10:27:11.167Z,6.80
2023-05-10T10:28:11.549Z,7.00
2023-05-10T10:29:11.734Z,8.90
2023-05-10T10:30:12.155Z,9.30
2023-05-10T10:31:12.478Z,7.50
2023-05-10T10:32:13.517Z,9.90
2023-05-10T10:33:20.624Z,8.20
2023-05-10T10:34:14.079Z,8.30
2023-05-10T10:35:13.386Z,10.20
2023-05-10T10:36:13.774Z,10.30
2023-05-10T10:37:14.023Z,10.50
2023-05-10T10:38:14.265Z,8.20
2023-05-10T10:39:14.686Z,6.70
2023-05-10T10:40:14.982Z,9.90
2023-05-10T10:41:15.296Z,8.20
2023-05-10T10:42:15.464Z,10.20
2023-05-10T10:43:15.676Z,9.50
2023-05-10T10:44:16.018Z,11.50
2023-05-10T10:45:16.486Z,9.10
2023-05-10T10:46:17.100Z,11.20
2023-05-10T10:47:16.759Z,11.10
2023-05-10T10:48:17.107Z,9.10
2023-05-10T10:49:17.453Z,7.30
2023-05-10T10:50:17.687Z,8.20
2023-05-10T10:51:18.095Z,6.70
2023-05-10T10:52:18.290Z,7.80
2023-05-10T10:53:18.582Z,7.60
2023-05-10T10:54:18.784Z,6.40
2023-05-10T10:55:19.617Z,9.80
2023-05-10T10:56:19.424Z,8.40
2023-05-10T10:57:19.746Z,6.70
2023-05-10T10:58:20.035Z,8.30
2023-05-10T10:59:20.502Z,5.80
2023-05-10T11:00:20.683Z,7.80
2023-05-10T11:01:20.942Z,8.30
2023-05-10T11:02:21.128Z,9.10
2023-05-10T11:03:21.520Z,7.40
2023-05-10T11:04:21.785Z,6.90
2023-05-10T11:05:22.065Z,7.10
2023-05-10T11:06:22.323Z,8.90
2023-05-10T11:07:22.493Z,10.70
2023-05-10T11:08:23.015Z,9.40
2023-05-10T11:09:23.150Z,8.20
2023-05-10T11:10:23.585Z,9.60
2023-05-10T11:11:23.964Z,8.90
2023-05-10T11:12:24.044Z,10.30
2023-05-10T11:13:24.299Z,9.90
2023-05-10T11:14:24.505Z,6.70
2023-05-10T11:15:24.890Z,10.10
2023-05-10T11:16:25.285Z,10.90
2023-05-10T11:17:25.578Z,8.80
2023-05-10T11:18:25.842Z,9.40
2023-05-10T11:19:26.954Z,6.60
2023-05-10T11:20:26.276Z,9.40
2023-05-10T11:21:26.591Z,11.70
2023-05-10T11:22:27.324Z,13.40
2023-05-10T11:23:27.988Z,9.60
2023-05-10T11:24:27.504Z,9.80
2023-05-10T11:25:27.853Z,10.30
2023-05-10T11:26:27.987Z,6.80
2023-05-10T11:27:28.348Z,8.30
2023-05-10T11:28:28.643Z,7.90
2023-05-10T11:29:28.882Z,10.80
2023-05-10T11:30:29.111Z,11.90
2023-05-10T11:31:29.578Z,13.00
2023-05-10T11:32:29.760Z,15.10
2023-05-10T11:33:30.043Z,10.20
2023-05-10T11:34:30.283Z,12.60
2023-05-10T11:35:30.527Z,11.70
2023-05-10T11:36:30.805Z,11.10
2023-05-10T11:37:31.134Z,9.20
2023-05-10T11:38:31.350Z,11.90
2023-05-10T11:39:31.574Z,9.00
2023-05-10T11:40:31.953Z,8.20
2023-05-10T11:41:32.170Z,8.30
2023-05-10T11:42:32.522Z,6.70
2023-05-10T11:43:32.809Z,8.00
2023-05-10T11:44:32.974Z,8.90
2023-05-10T11:45:33.410Z,12.80
2023-05-10T11:46:33.732Z,13.10
2023-05-10T11:47:33.984Z,13.60
2023-05-10T11:48:34.142Z,10.40
2023-05-10T11:49:34.545Z,10.40
2023-05-10T11:50:34.878Z,7.40
2023-05-10T11:51:35.035Z,7.00
2023-05-10T11:52:35.331Z,6.30
2023-05-10T11:53:35.694Z,7.60
2023-05-10T11:54:35.882Z,7.40
2023-05-10T11:55:36.138Z,7.10
2023-05-10T11:56:36.342Z,8.70
2023-05-10T11:57:36.920Z,10.30
2023-05-10T11:58:36.946Z,8.20
2023-05-10T11:59:37.249Z,8.70
2023-05-10T12:00:38.535Z,10.40
2023-05-10T12:01:37.954Z,9.00
2023-05-10T12:02:38.303Z,10.80
2023-05-10T12:03:38.703Z,9.90
2023-05-10T12:04:38.943Z,7.60
2023-05-10T12:05:39.734Z,9.20
2023-05-10T12:06:39.344Z,11.60
2023-05-10T12:07:39.718Z,9.90
2023-05-10T12:08:40.371Z,9.00
2023-05-10T12:09:44.125Z,11.00
2023-05-10T12:10:40.657Z,10.80
2023-05-10T12:11:43.528Z,7.40
2023-05-10T12:12:41.123Z,9.50
2023-05-10T12:13:41.438Z,15.60
2023-05-10T12:14:41.812Z,12.30
2023-05-10T12:15:42.069Z,16.30
2023-05-10T12:16:43.277Z,20.60
2023-05-10T12:17:43.541Z,14.10
2023-05-10T12:18:42.857Z,10.40
2023-05-10T12:19:43.217Z,8.20
2023-05-10T12:20:43.403Z,9.40
2023-05-10T12:21:43.733Z,7.40
2023-05-10T12:22:44.122Z,7.50
2023-05-10T12:23:44.370Z,9.80
2023-05-10T12:24:44.748Z,7.80
2023-05-10T12:25:44.969Z,9.50
2023-05-10T12:26:45.164Z,6.80
2023-05-10T12:27:45.443Z,11.30
2023-05-10T12:28:45.639Z,9.00
2023-05-10T12:29:45.942Z,8.00
2023-05-10T12:30:46.280Z,10.40
2023-05-10T12:31:46.533Z,7.40
2023-05-10T12:32:46.826Z,8.70
2023-05-10T12:33:47.101Z,9.30
2023-05-10T12:34:47.300Z,11.70
2023-05-10T12:35:47.573Z,10.00
2023-05-10T12:36:48.768Z,12.00
2023-05-10T12:37:48.186Z,11.00
2023-05-10T12:38:48.561Z,9.50
2023-05-10T12:39:48.744Z,18.70
2023-05-10T12:40:49.025Z,18.00
2023-05-10T12:41:49.267Z,17.70
2023-05-10T12:42:49.783Z,16.40
2023-05-10T12:43:49.855Z,20.60
2023-05-10T12:44:50.084Z,9.50
2023-05-10T12:45:50.390Z,10.90
2023-05-10T12:46:50.710Z,11.50
2023-05-10T12:47:51.017Z,9.50
2023-05-10T12:48:57.593Z,12.50
2023-05-10T12:49:52.501Z,9.10
2023-05-10T12:50:51.759Z,7.50
2023-05-10T12:51:52.031Z,8.80
2023-05-10T12:52:52.183Z,10.50
2023-05-10T12:53:52.604Z,8.90
2023-05-10T12:54:52.864Z,9.70
2023-05-10T12:55:53.036Z,9.00
2023-05-10T12:56:53.425Z,8.70
2023-05-10T12:57:53.684Z,10.60
2023-05-10T12:58:53.866Z,13.00
2023-05-10T12:59:54.309Z,10.50
2023-05-10T13:00:54.547Z,14.50
2023-05-10T13:01:54.910Z,13.60
2023-05-10T13:02:55.173Z,12.70
2023-05-10T13:03:55.309Z,11.50
2023-05-10T13:04:55.548Z,12.80
2023-05-10T13:05:55.867Z,13.50
2023-05-10T13:06:56.591Z,13.10
2023-05-10T13:07:56.369Z,12.10
2023-05-10T13:08:56.636Z,8.40
2023-05-10T13:09:57.937Z,11.40
2023-05-10T13:10:57.120Z,13.60
2023-05-10T13:11:57.471Z,12.60
2023-05-10T13:12:57.688Z,10.40
2023-05-10T13:13:57.976Z,14.10
2023-05-10T13:14:58.344Z,12.80
2023-05-10T13:15:58.593Z,13.90
2023-05-10T13:16:58.911Z,11.50
2023-05-10T13:17:59.121Z,14.60
2023-05-10T13:18:59.569Z,15.00
2023-05-10T13:20:00.186Z,10.50
2023-05-10T13:21:00.008Z,7.90